Time;durP1;ratioP1;P1;durP2;ratioP2;P2;SDS_P1;SDS_P2;PMS_P1;PMS_P2;Temp;Humidity;BMP_temperature;BMP_pressure;BME280_temperature;BME280_humidity;BME280_pressure;Samples;Min_cycle;Max_cycle;Signal;HPM_P1;HPM_P2
2023/12/21 05:32:07;;;;;;;;;0.00;0.00;;;;;19.48;51.48;100900.66;5037953;28;45566;-83
2023/12/21 05:34:32;;;;;;;;;0.00;0.00;;;;;19.61;51.11;100883.19;5034352;28;46353;-83
2023/12/21 05:36:59;;;;;;;;;0.00;0.00;;;;;19.60;51.70;100897.78;5012533;28;45436;-84
2023/12/21 05:39:25;;;;;;;;;0.00;0.00;;;;;19.51;51.21;100884.06;5030285;28;45467;-83
2023/12/21 05:41:50;;;;;;;;;0.00;0.00;;;;;19.38;52.04;100889.59;5018956;28;46114;-82
2023/12/21 05:44:16;;;;;;;;;0.00;0.00;;;;;19.34;52.33;100911.72;5035904;28;52075;-82
2023/12/21 05:46:42;;;;;;;;;0.00;0.00;;;;;19.68;51.51;100908.03;5036932;28;49003;-82
2023/12/21 05:49:08;;;;;;;;;0.00;0.00;;;;;19.25;52.16;100897.00;5038183;28;45614;-83
2023/12/21 05:51:34;;;;;;;;;0.00;0.00;;;;;19.00;53.17;100859.16;5038125;28;45513;-83
2023/12/21 05:53:59;;;;;;;;;0.00;0.00;;;;;19.02;53.49;100884.38;5036000;28;46491;-82
2023/12/21 05:56:24;;;;;;;;;0.00;0.00;;;;;19.37;52.92;100887.00;5038179;28;45332;-83
2023/12/21 05:58:50;;;;;;;;;0.00;0.00;;;;;19.40;52.90;100852.25;5037812;28;45479;-83
2023/12/21 06:01:15;;;;;;;;;0.00;0.00;;;;;19.33;52.73;100826.56;5038259;28;46393;-81
2023/12/21 06:03:40;;;;;;;;;0.00;0.00;;;;;18.98;52.83;100823.09;5041685;28;45276;-83
2023/12/21 06:06:06;;;;;;;;;0.00;0.00;;;;;19.35;52.39;100832.75;5041391;28;52190;-83
2023/12/21 06:08:32;;;;;;;;;0.00;0.00;;;;;19.20;52.26;100810.41;5040297;28;45767;-81
2023/12/21 06:10:57;;;;;;;;;0.00;0.00;;;;;19.37;52.50;100838.94;5042231;28;45605;-83
2023/12/21 06:13:22;;;;;;;;;0.00;0.00;;;;;19.28;52.34;100826.94;5041483;28;45422;-81
2023/12/21 06:15:48;;;;;;;;;0.00;0.00;;;;;19.29;52.65;100841.41;5040893;28;44792;-81
2023/12/21 06:18:13;;;;;;;;;0.00;0.00;;;;;19.21;52.76;100847.47;5037025;28;45498;-82
2023/12/21 06:20:38;;;;;;;;;0.00;0.00;;;;;19.32;52.71;100857.44;5035643;28;59541;-82
2023/12/21 06:23:04;;;;;;;;;1.00;0.00;;;;;19.11;52.32;100823.84;5036016;28;46308;-82
2023/12/21 06:25:30;;;;;;;;;0.00;0.00;;;;;19.30;52.07;100843.16;5018790;28;45412;-82
2023/12/21 06:27:55;;;;;;;;;0.25;0.25;;;;;19.32;51.31;100832.13;5035913;28;45341;-83
2023/12/21 06:30:20;;;;;;;;;0.00;0.00;;;;;19.53;51.28;100873.94;5036029;28;45348;-82
2023/12/21 06:32:46;;;;;;;;;0.00;0.00;;;;;19.04;51.96;100838.94;5035130;28;45521;-82
2023/12/21 06:35:11;;;;;;;;;0.75;0.00;;;;;19.54;51.20;100845.75;5036734;28;45340;-82
2023/12/21 06:37:36;;;;;;;;;0.00;0.00;;;;;19.41;51.23;100836.81;5035673;28;45626;-81
2023/12/21 06:40:04;;;;;;;;;0.00;0.00;;;;;19.76;50.68;100872.91;5034980;28;56923;-83
2023/12/21 06:42:29;;;;;;;;;0.00;0.00;;;;;19.59;50.99;100865.25;5036747;28;46206;-83
2023/12/21 06:44:55;;;;;;;;;0.00;0.00;;;;;19.86;50.49;100864.88;5036195;28;45256;-82
2023/12/21 06:47:22;;;;;;;;;0.00;0.00;;;;;19.95;50.27;100872.25;5036084;28;45423;-82
2023/12/21 06:49:47;;;;;;;;;0.00;0.00;;;;;19.55;50.57;100869.25;5034002;28;45450;-81
2023/12/21 06:52:13;;;;;;;;;0.00;0.00;;;;;19.44;51.42;100875.50;5036585;28;46197;-78
2023/12/21 06:54:38;;;;;;;;;0.00;0.00;;;;;19.58;51.13;100852.66;5047500;28;45350;-80
2023/12/21 06:57:05;;;;;;;;;0.00;0.00;;;;;19.56;51.10;100879.97;5036002;28;45312;-82
2023/12/21 06:59:30;;;;;;;;;0.00;0.00;;;;;19.51;51.24;100890.38;5035216;28;45379;-79
2023/12/21 07:01:56;;;;;;;;;0.00;0.00;;;;;19.74;50.54;100871.28;5035319;28;45511;-80
2023/12/21 07:04:21;;;;;;;;;0.00;0.00;;;;;19.65;50.53;100829.41;5017154;28;46057;-83
2023/12/21 07:06:47;;;;;;;;;0.00;0.00;;;;;19.97;50.23;100871.16;5033047;28;45688;-80
2023/12/21 07:09:14;;;;;;;;;0.00;0.00;;;;;19.81;50.47;100859.81;5034714;28;45506;-80
2023/12/21 07:11:39;;;;;;;;;0.00;0.00;;;;;19.78;50.75;100870.06;5035484;28;46736;-76
2023/12/21 07:14:04;;;;;;;;;0.00;0.00;;;;;19.85;50.33;100874.88;5035053;28;45305;-74
2023/12/21 07:16:30;;;;;;;;;0.00;0.00;;;;;19.84;50.63;100889.47;5044279;28;52667;-75
2023/12/21 07:18:55;;;;;;;;;0.00;0.00;;;;;20.00;50.30;100892.66;5033967;28;58709;-75
2023/12/21 07:21:20;;;;;;;;;0.00;0.00;;;;;19.53;51.14;100914.72;5034540;28;58272;-79
2023/12/21 07:23:45;;;;;;;;;0.00;0.00;;;;;19.91;50.66;100895.25;5034722;28;45383;-78
2023/12/21 07:26:11;;;;;;;;;1.25;0.00;;;;;20.10;50.01;100875.56;5034661;28;51533;-76
2023/12/21 07:28:36;;;;;;;;;0.00;0.00;;;;;20.09;50.06;100892.88;5035068;28;45442;-77
2023/12/21 07:31:02;;;;;;;;;0.50;0.00;;;;;19.86;50.88;100882.06;5034415;28;45348;-80
2023/12/21 07:33:27;;;;;;;;;0.00;0.00;;;;;19.50;51.56;100885.91;5034436;28;45340;-75
2023/12/21 07:35:52;;;;;;;;;0.00;0.00;;;;;19.74;51.48;100903.94;5034601;28;45487;-76
2023/12/21 07:38:18;;;;;;;;;0.00;0.00;;;;;19.92;51.01;100888.84;5029651;28;45601;-79
2023/12/21 07:40:44;;;;;;;;;0.00;0.00;;;;;19.94;50.80;100882.28;5032655;28;46096;-77
2023/12/21 07:43:09;;;;;;;;;0.00;0.00;;;;;19.70;51.19;100875.28;5032995;28;45458;-78
2023/12/21 07:45:35;;;;;;;;;0.00;0.00;;;;;19.87;50.55;100853.84;5032257;28;45335;-76
2023/12/21 07:48:00;;;;;;;;;0.00;0.00;;;;;19.93;50.89;100853.34;5036396;28;46103;-76
2023/12/21 07:50:27;;;;;;;;;0.00;0.00;;;;;20.08;50.27;100856.63;5040825;28;54715;-76
2023/12/21 07:52:56;;;;;;;;;0.00;0.00;;;;;20.01;50.71;100875.34;5032462;28;45332;-77
2023/12/21 07:55:22;;;;;;;;;0.50;0.00;;;;;19.76;51.39;100853.00;5034194;28;45472;-76
2023/12/21 07:57:47;;;;;;;;;0.00;0.00;;;;;19.74;51.72;100871.28;5034287;28;45445;-78
2023/12/21 08:00:13;;;;;;;;;0.00;0.00;;;;;19.76;51.26;100847.56;5032853;28;58677;-77
2023/12/21 08:02:44;;;;;;;;;0.00;0.00;;;;;19.80;51.19;100851.78;5034018;28;45539;-74
2023/12/21 08:05:12;;;;;;;;;0.00;0.00;;;;;19.31;51.70;100812.22;5031814;28;45498;-76
2023/12/21 08:07:38;;;;;;;;;0.00;0.00;;;;;19.36;51.92;100841.78;5034097;28;45445;-77
2023/12/21 08:10:05;;;;;;;;;0.00;0.00;;;;;19.71;51.27;100819.88;5034028;28;46182;-75
2023/12/21 08:12:30;;;;;;;;;0.00;0.00;;;;;19.84;51.15;100831.47;5033040;28;45454;-78
2023/12/21 08:14:55;;;;;;;;;0.00;0.00;;;;;19.81;51.20;100831.75;5033360;28;51920;-75
2023/12/21 08:17:21;;;;;;;;;0.00;0.00;;;;;19.80;51.33;100822.72;5033668;28;46023;-77
2023/12/21 08:19:47;;;;;;;;;0.00;0.00;;;;;19.98;50.93;100818.47;5033140;28;51641;-76
2023/12/21 08:22:12;;;;;;;;;0.00;0.00;;;;;20.03;50.87;100812.63;5032313;28;45466;-77
2023/12/21 08:24:37;;;;;;;;;0.00;0.00;;;;;19.95;50.90;100834.16;5032469;28;48836;-77
2023/12/21 08:27:04;;;;;;;;;0.00;0.00;;;;;20.06;50.67;100820.53;5034256;28;45529;-77
2023/12/21 08:29:31;;;;;;;;;0.00;0.00;;;;;20.20;50.24;100798.44;5042740;28;45682;-75
2023/12/21 08:31:56;;;;;;;;;0.00;0.00;;;;;20.34;49.97;100819.06;5017415;28;45256;-75
2023/12/21 08:34:22;;;;;;;;;0.00;0.00;;;;;20.30;50.01;100820.31;5040478;28;45221;-76
2023/12/21 08:36:48;;;;;;;;;0.00;0.00;;;;;20.04;50.71;100808.91;5039255;28;46018;-76
2023/12/21 08:39:13;;;;;;;;;0.00;0.00;;;;;20.07;50.84;100805.94;5038868;28;46001;-77
2023/12/21 08:41:38;;;;;;;;;0.00;0.00;;;;;19.76;51.15;100769.53;5037637;28;45484;-78
2023/12/21 08:44:04;;;;;;;;;0.00;0.00;;;;;19.92;51.36;100818.94;5040764;28;45273;-76
2023/12/21 08:46:29;;;;;;;;;0.25;0.00;;;;;20.28;50.18;100825.88;5036034;28;60385;-76
2023/12/21 08:48:54;;;;;;;;;0.00;0.00;;;;;19.74;51.61;100834.09;5037661;28;46367;-77
2023/12/21 08:51:20;;;;;;;;;0.00;0.00;;;;;19.86;51.25;100843.09;5039528;28;45427;-78
2023/12/21 08:53:45;;;;;;;;;0.00;0.00;;;;;19.73;52.09;100851.41;5041298;28;45266;-76
2023/12/21 08:56:10;;;;;;;;;0.00;0.00;;;;;19.77;52.04;100838.41;5031475;28;45412;-78
2023/12/21 08:58:36;;;;;;;;;0.00;0.00;;;;;20.05;51.55;100826.09;5034065;28;46129;-77
2023/12/21 09:01:01;;;;;;;;;0.00;0.00;;;;;19.94;51.36;100814.25;5037379;28;45338;-77
2023/12/21 09:03:30;;;;;;;;;0.00;0.00;;;;;19.79;52.03;100825.56;5043143;28;45365;-77
2023/12/21 09:05:56;;;;;;;;;0.00;0.00;;;;;19.88;51.70;100860.16;5039198;28;45539;-79
2023/12/21 09:08:21;;;;;;;;;0.25;0.00;;;;;19.86;51.85;100814.03;5039720;28;45814;-76
2023/12/21 09:10:47;;;;;;;;;0.00;0.00;;;;;20.05;51.48;100845.16;5018177;28;48931;-76
2023/12/21 09:13:12;;;;;;;;;0.00;0.00;;;;;20.17;51.40;100839.53;5035736;28;51568;-76
2023/12/21 09:15:37;;;;;;;;;0.00;0.00;;;;;20.16;51.28;100826.06;5036559;28;54696;-75
2023/12/21 09:18:05;;;;;;;;;0.00;0.00;;;;;20.23;51.46;100838.16;5036414;28;45484;-74
2023/12/21 09:20:30;;;;;;;;;0.00;0.00;;;;;20.32;51.33;100846.41;5037109;28;45487;-72
2023/12/21 09:22:55;;;;;;;;;0.00;0.00;;;;;20.42;50.92;100841.06;5039245;28;56316;-75
2023/12/21 09:25:21;;;;;;;;;0.00;0.00;;;;;19.46;53.11;100864.50;5038824;28;51733;-77
2023/12/21 09:27:47;;;;;;;;;1.00;0.00;;;;;20.12;51.80;100843.63;5020373;28;47429;-77
2023/12/21 09:30:13;;;;;;;;;0.75;0.75;;;;;20.32;51.70;100845.56;5045452;28;45480;-76
2023/12/21 09:32:45;;;;;;;;;0.00;0.00;;;;;20.23;51.60;100851.78;5046632;28;45394;-77
2023/12/21 09:35:10;;;;;;;;;0.00;0.00;;;;;20.37;51.86;100854.22;5042791;28;46135;-74
2023/12/21 09:37:35;;;;;;;;;0.00;0.00;;;;;20.19;52.28;100836.69;5039495;28;63870;-76
2023/12/21 09:40:02;;;;;;;;;0.00;0.00;;;;;20.38;51.99;100839.59;5038718;28;45910;-75
2023/12/21 09:42:29;;;;;;;;;0.00;0.00;;;;;20.32;51.69;100840.97;5036542;28;45471;-82
2023/12/21 09:44:55;;;;;;;;;0.00;0.00;;;;;20.41;52.10;100841.22;5036516;28;45388;-76
2023/12/21 09:47:22;;;;;;;;;0.00;0.00;;;;;20.65;50.94;100807.28;5038261;28;46247;-75
2023/12/21 09:49:50;;;;;;;;;0.00;0.00;;;;;20.73;50.82;100810.19;5036200;28;45235;-77
2023/12/21 09:52:20;;;;;;;;;0.00;0.00;;;;;20.39;51.98;100817.69;5037473;28;45418;-76
2023/12/21 09:54:49;;;;;;;;;0.00;0.00;;;;;20.46;51.65;100822.59;5047530;28;45423;-76
2023/12/21 09:57:15;;;;;;;;;0.00;0.00;;;;;20.34;52.06;100821.78;5035098;28;45622;-76
2023/12/21 09:59:40;;;;;;;;;0.00;0.00;;;;;20.21;52.25;100816.50;5033904;28;45431;-77
2023/12/21 10:02:11;;;;;;;;;0.00;0.00;;;;;20.37;51.89;100800.63;5035621;28;45579;-78
2023/12/21 10:04:40;;;;;;;;;0.00;0.00;;;;;20.61;51.28;100826.72;5035874;28;46473;-76
2023/12/21 10:07:07;;;;;;;;;0.00;0.00;;;;;20.36;51.97;100831.56;5035548;28;46191;-77
2023/12/21 10:09:34;;;;;;;;;0.00;0.00;;;;;20.20;52.22;100814.78;5039210;28;45394;-77
2023/12/21 10:11:59;;;;;;;;;0.00;0.00;;;;;20.35;52.41;100796.28;5035816;28;45449;-76
2023/12/21 10:14:25;;;;;;;;;0.00;0.00;;;;;20.30;51.90;100793.94;5043199;28;45590;-77
2023/12/21 10:16:50;;;;;;;;;0.00;0.00;;;;;20.45;52.12;100801.81;5045711;28;45455;-77
2023/12/21 10:19:16;;;;;;;;;0.00;0.00;;;;;20.51;52.20;100807.59;5045822;28;45310;-77
2023/12/21 10:21:42;;;;;;;;;0.00;0.00;;;;;20.59;52.16;100796.03;5042101;28;45488;-76
2023/12/21 10:24:08;;;;;;;;;0.00;0.00;;;;;20.50;51.88;100784.06;5038517;28;45538;-78
2023/12/21 10:26:53;;;;;;;;;0.00;0.00;;;;;20.62;51.87;100804.81;5037117;28;46673;-75
2023/12/21 10:29:20;;;;;;;;;0.00;0.00;;;;;20.72;51.51;100794.84;5035380;28;45883;-77
2023/12/21 10:31:47;;;;;;;;;0.00;0.00;;;;;20.64;51.81;100796.50;5034955;28;45342;-76
2023/12/21 10:34:12;;;;;;;;;1.75;0.00;;;;;20.29;52.70;100794.94;5035275;28;45301;-76
2023/12/21 10:36:45;;;;;;;;;0.00;0.00;;;;;20.30;52.81;100795.81;5035246;28;45593;-78
2023/12/21 10:39:12;;;;;;;;;1.00;0.00;;;;;20.36;52.56;100779.81;5035260;28;45336;-77
2023/12/21 10:41:43;;;;;;;;;0.00;0.00;;;;;20.51;52.00;100790.38;5036091;28;45494;-78
2023/12/21 10:44:08;;;;;;;;;0.00;0.00;;;;;20.69;52.14;100799.69;5032957;28;45383;-77
2023/12/21 10:46:36;;;;;;;;;1.00;1.00;;;;;20.85;51.86;100810.09;5033796;28;46348;-77
2023/12/21 10:49:04;;;;;;;;;0.50;0.50;;;;;20.54;51.99;100780.09;5033839;28;45346;-77
2023/12/21 10:51:31;;;;;;;;;0.50;0.50;;;;;20.86;51.56;100814.56;5035277;28;45459;-79
2023/12/21 10:54:00;;;;;;;;;0.00;0.00;;;;;20.67;51.67;100826.22;5036579;28;45321;-78
2023/12/21 10:56:27;;;;;;;;;3.50;3.50;;;;;20.78;51.81;100813.38;5020465;28;48482;-73
2023/12/21 10:58:55;;;;;;;;;1.50;1.25;;;;;20.78;51.32;100798.88;5039979;28;45478;-76
2023/12/21 11:01:21;;;;;;;;;0.00;0.00;;;;;20.78;51.94;100787.97;5040683;28;45448;-77
2023/12/21 11:03:48;;;;;;;;;1.00;1.00;;;;;20.79;51.84;100776.09;5040003;28;45562;-77
2023/12/21 11:06:16;;;;;;;;;0.00;0.00;;;;;20.69;51.89;100769.72;5039555;28;46519;-77
2023/12/21 11:08:45;;;;;;;;;2.00;2.00;;;;;20.72;51.71;100764.88;5038382;28;45367;-78
2023/12/21 11:11:22;;;;;;;;;0.00;0.00;;;;;20.65;51.96;100757.38;5042713;28;45458;-76
2023/12/21 11:13:52;;;;;;;;;1.25;1.25;;;;;20.81;51.51;100751.44;5043542;28;45352;-78
2023/12/21 11:16:23;;;;;;;;;0.50;0.50;;;;;20.42;52.38;100742.16;5025582;28;46056;-77
2023/12/21 11:18:50;;;;;;;;;2.00;1.00;;;;;20.44;52.54;100727.41;5040321;28;45505;-76
2023/12/21 11:21:18;;;;;;;;;1.75;1.75;;;;;20.42;52.18;100718.50;5042883;28;45560;-77
2023/12/21 11:23:44;;;;;;;;;2.00;1.00;;;;;20.28;52.85;100724.28;5033251;28;45601;-78
2023/12/21 11:26:10;;;;;;;;;2.00;2.00;;;;;20.28;52.49;100727.00;5041052;28;46205;-78
2023/12/21 11:28:35;;;;;;;;;1.50;1.00;;;;;20.67;52.06;100731.69;5040383;28;45411;-80
2023/12/21 11:31:14;;;;;;;;;1.75;1.00;;;;;20.41;52.25;100715.94;5025747;28;45657;-79
2023/12/21 11:33:40;;;;;;;;;3.50;2.00;;;;;20.45;52.92;100701.06;5042802;28;45573;-79
2023/12/21 11:36:07;;;;;;;;;1.75;1.75;;;;;20.71;52.06;100708.66;5048876;28;45912;-78
2023/12/21 11:38:46;;;;;;;;;1.00;1.00;;;;;20.50;52.36;100701.53;5035455;28;45312;-78
2023/12/21 11:41:11;;;;;;;;;1.75;1.50;;;;;20.69;52.65;100683.41;5035855;28;45356;-77
2023/12/21 11:43:37;;;;;;;;;3.00;2.00;;;;;20.62;51.93;100660.44;5035288;28;45349;-77
2023/12/21 11:46:02;;;;;;;;;1.00;1.00;;;;;20.58;52.30;100645.38;5054844;28;46297;-79
2023/12/21 11:48:32;;;;;;;;;3.25;0.50;;;;;20.16;53.38;100654.56;5041649;28;45817;-79
2023/12/21 11:51:02;;;;;;;;;2.00;0.25;;;;;20.57;52.80;100660.00;5041452;28;45450;-78
2023/12/21 11:53:28;;;;;;;;;3.00;3.00;;;;;20.35;53.26;100660.16;5049582;28;45217;-81
2023/12/21 11:55:54;;;;;;;;;2.00;2.00;;;;;20.31;52.86;100634.16;5036828;28;46360;-83
2023/12/21 11:58:25;;;;;;;;;0.50;0.50;;;;;20.22;53.11;100660.34;5055326;28;45411;-86
2023/12/21 12:00:55;;;;;;;;;4.00;1.00;;;;;20.39;53.03;100620.78;5048385;28;45495;-81
2023/12/21 12:03:23;;;;;;;;;1.25;1.00;;;;;20.46;53.05;100668.25;5045488;28;45380;-82
2023/12/21 12:05:52;;;;;;;;;1.00;1.00;;;;;20.63;52.35;100656.72;5033548;28;47884;-85
2023/12/21 12:08:22;;;;;;;;;2.00;2.00;;;;;20.55;51.51;100620.25;5049995;28;45478;-85
2023/12/21 12:10:48;;;;;;;;;3.00;2.00;;;;;20.66;52.39;100618.31;5048310;28;45454;-84
2023/12/21 12:13:18;;;;;;;;;4.00;2.25;;;;;20.19;52.13;100564.47;5055252;28;46213;-85
2023/12/21 12:15:47;;;;;;;;;6.50;3.50;;;;;20.46;52.03;100575.66;5049153;28;46883;-87
2023/12/21 12:18:13;;;;;;;;;3.75;2.00;;;;;20.78;52.05;100573.59;5052019;28;45518;-80
2023/12/21 12:20:43;;;;;;;;;26.50;23.25;;;;;20.97;51.69;100610.94;5046123;28;45554;-79
2023/12/21 12:23:09;;;;;;;;;35.50;31.50;;;;;20.91;51.84;100613.38;5037878;28;45306;-80
2023/12/21 12:25:35;;;;;;;;;18.50;14.50;;;;;20.73;52.14;100616.75;5037002;28;45189;-79
2023/12/21 12:28:01;;;;;;;;;21.25;17.00;;;;;21.00;51.11;100612.53;5038421;28;45542;-78
2023/12/21 12:30:26;;;;;;;;;6.00;6.00;;;;;21.26;50.79;100626.53;5038901;28;45466;-79
2023/12/21 12:32:53;;;;;;;;;1.25;1.00;;;;;21.16;50.63;100626.47;5019229;28;44920;-78
2023/12/21 12:35:19;;;;;;;;;2.25;2.25;;;;;21.25;49.92;100628.38;5037127;28;45438;-78
2023/12/21 12:37:47;;;;;;;;;1.75;1.75;;;;;20.74;51.25;100636.69;5039529;28;51403;-77
2023/12/21 12:40:13;;;;;;;;;1.00;1.00;;;;;20.69;51.18;100653.44;5024228;28;45534;-78
2023/12/21 12:42:39;;;;;;;;;3.00;2.00;;;;;20.76;51.29;100646.44;5032279;28;45525;-75
2023/12/21 12:45:06;;;;;;;;;1.00;1.00;;;;;20.89;50.70;100656.22;5027263;28;47309;-85
2023/12/21 12:47:33;;;;;;;;;0.25;0.00;;;;;20.22;52.06;100654.91;5030761;28;45399;-78
2023/12/21 12:49:59;;;;;;;;;7.50;1.00;;;;;20.73;51.58;100649.44;5045596;28;45524;-81
2023/12/21 12:52:24;;;;;;;;;2.00;0.50;;;;;20.83;51.40;100633.13;5044933;28;45532;-77
2023/12/21 12:54:50;;;;;;;;;3.00;1.00;;;;;20.84;51.14;100595.84;5034694;28;47014;-81
2023/12/21 12:57:17;;;;;;;;;1.25;1.00;;;;;20.74;51.36;100613.03;5039658;28;45508;-77
2023/12/21 12:59:43;;;;;;;;;3.00;1.50;;;;;20.77;51.22;100625.50;5039073;28;45432;-79
2023/12/21 13:02:09;;;;;;;;;2.00;0.75;;;;;20.82;51.69;100625.09;5039312;28;45475;-79
2023/12/21 13:04:34;;;;;;;;;2.00;2.00;;;;;20.73;51.98;100624.94;5042606;28;46009;-78
2023/12/21 13:07:00;;;;;;;;;3.00;1.75;;;;;20.50;52.13;100633.44;5047120;28;45422;-76
2023/12/21 13:09:26;;;;;;;;;0.50;0.00;;;;;20.31;52.39;100590.59;5042344;28;45346;-77
2023/12/21 13:11:52;;;;;;;;;3.00;1.75;;;;;20.29;52.58;100614.38;5040577;28;45569;-77
2023/12/21 13:14:17;;;;;;;;;2.75;1.00;;;;;20.29;52.39;100631.56;5039752;28;45898;-78
2023/12/21 13:16:44;;;;;;;;;1.50;1.50;;;;;20.78;51.93;100660.78;5038220;28;45400;-78
2023/12/21 13:19:10;;;;;;;;;2.25;0.75;;;;;20.64;51.83;100652.13;5038403;28;45310;-77
2023/12/21 13:21:37;;;;;;;;;4.00;1.25;;;;;20.34;51.93;100651.13;5037699;28;45282;-77
2023/12/21 13:24:03;;;;;;;;;1.25;1.25;;;;;20.57;51.98;100646.38;5037633;28;45482;-78
2023/12/21 13:26:29;;;;;;;;;2.00;0.00;;;;;20.69;51.58;100686.13;5038830;28;45411;-79
2023/12/21 13:28:58;;;;;;;;;1.00;1.00;;;;;20.77;51.89;100686.31;5036815;28;45282;-77
2023/12/21 13:31:26;;;;;;;;;0.00;0.00;;;;;20.69;51.29;100677.09;5044769;28;45616;-79
2023/12/21 13:33:53;;;;;;;;;0.00;0.00;;;;;20.77;51.87;100699.06;5037651;28;45376;-78
2023/12/21 13:36:20;;;;;;;;;0.00;0.00;;;;;20.91;51.19;100700.56;5042833;28;45387;-76
2023/12/21 13:38:46;;;;;;;;;1.00;1.00;;;;;20.92;51.01;100696.84;5021689;28;45373;-76
2023/12/21 13:41:12;;;;;;;;;3.00;2.00;;;;;20.69;50.81;100707.06;5041186;28;45316;-78
2023/12/21 13:43:39;;;;;;;;;1.00;1.00;;;;;20.68;51.10;100695.28;5043030;28;46034;-79
2023/12/21 13:46:06;;;;;;;;;3.25;0.75;;;;;20.82;50.75;100702.25;5039432;28;45470;-77
2023/12/21 13:48:32;;;;;;;;;2.75;2.75;;;;;20.98;50.89;100709.91;5040748;28;45423;-78
2023/12/21 13:50:57;;;;;;;;;0.00;0.00;;;;;20.70;51.71;100689.72;5040710;28;50181;-77
2023/12/21 13:53:22;;;;;;;;;1.00;1.00;;;;;20.41;51.81;100702.34;5046766;28;45317;-78
2023/12/21 13:55:48;;;;;;;;;2.75;2.75;;;;;20.50;51.60;100647.88;5036926;28;45234;-76
2023/12/21 13:58:14;;;;;;;;;1.25;1.00;;;;;20.68;51.30;100672.63;5037237;28;45340;-78
2023/12/21 14:00:40;;;;;;;;;1.00;1.00;;;;;20.67;51.53;100685.38;5037169;28;45470;-78
2023/12/21 14:03:05;;;;;;;;;1.00;1.00;;;;;20.59;51.71;100674.31;5043209;28;47119;-77
2023/12/21 14:05:30;;;;;;;;;3.75;2.00;;;;;20.64;50.62;100668.47;5037736;28;45307;-78
2023/12/21 14:07:56;;;;;;;;;3.00;1.50;;;;;20.78;50.42;100651.75;5040712;28;45296;-78
2023/12/21 14:10:22;;;;;;;;;1.00;0.00;;;;;20.59;50.35;100662.56;5041505;28;46357;-78
2023/12/21 14:12:47;;;;;;;;;1.50;0.00;;;;;20.70;50.24;100668.78;5039305;28;45576;-77
2023/12/21 14:15:13;;;;;;;;;2.75;1.00;;;;;20.57;49.98;100624.59;5023197;28;45777;-77
2023/12/21 14:17:38;;;;;;;;;2.00;1.00;;;;;20.54;50.27;100641.19;5046414;28;45486;-78
2023/12/21 14:20:04;;;;;;;;;2.00;0.25;;;;;20.61;50.75;100645.09;5036321;28;45508;-78
2023/12/21 14:22:29;;;;;;;;;3.00;1.00;;;;;20.68;50.51;100629.91;5039979;28;46169;-77
2023/12/21 14:24:55;;;;;;;;;1.75;1.75;;;;;20.90;50.67;100633.44;5040577;28;45399;-78
2023/12/21 14:27:22;;;;;;;;;3.75;1.75;;;;;20.97;50.47;100626.41;5032825;28;45484;-78
2023/12/21 14:29:47;;;;;;;;;1.00;1.00;;;;;21.06;49.86;100631.03;5033207;28;45280;-77
2023/12/21 14:32:13;;;;;;;;;2.00;1.00;;;;;21.04;50.21;100643.94;5035833;28;45796;-77
2023/12/21 14:34:38;;;;;;;;;2.00;1.50;;;;;20.76;50.53;100637.38;5035723;28;45438;-77
2023/12/21 14:37:04;;;;;;;;;1.50;1.00;;;;;20.83;50.75;100649.47;5035853;28;45389;-76
2023/12/21 14:39:29;;;;;;;;;1.00;1.00;;;;;20.68;50.98;100619.00;5035856;28;52829;-76
2023/12/21 14:41:54;;;;;;;;;2.50;1.00;;;;;20.84;50.41;100642.19;5035965;28;45419;-77
2023/12/21 14:44:20;;;;;;;;;2.25;2.25;;;;;20.70;50.64;100657.88;5035070;28;45406;-76
2023/12/21 14:46:47;;;;;;;;;0.75;0.75;;;;;20.82;50.24;100641.44;5036180;28;45206;-77
2023/12/21 14:49:12;;;;;;;;;2.00;0.00;;;;;20.99;49.70;100658.00;5035694;28;45621;-76
2023/12/21 14:51:40;;;;;;;;;1.00;0.00;;;;;20.96;49.64;100652.81;5033487;28;60945;-77
2023/12/21 14:54:06;;;;;;;;;2.25;1.00;;;;;20.97;48.90;100645.50;5036729;28;45694;-79
2023/12/21 14:56:32;;;;;;;;;0.00;0.00;;;;;21.00;48.53;100658.84;5037824;28;45628;-76
2023/12/21 14:58:57;;;;;;;;;2.00;1.00;;;;;20.94;48.85;100662.97;5039328;28;56440;-82
2023/12/21 15:01:24;;;;;;;;;0.00;0.00;;;;;20.85;49.25;100668.41;5035145;28;45883;-76
2023/12/21 15:03:49;;;;;;;;;1.25;0.00;;;;;20.61;49.64;100641.50;5035481;28;45362;-76
2023/12/21 15:06:15;;;;;;;;;2.00;0.00;;;;;20.49;49.17;100640.75;5031794;28;46077;-80
2023/12/21 15:08:40;;;;;;;;;1.00;1.00;;;;;20.89;48.50;100640.75;5032977;28;45555;-78
2023/12/21 15:11:05;;;;;;;;;1.75;0.00;;;;;21.02;48.68;100646.78;5033300;28;45619;-79
2023/12/21 15:13:31;;;;;;;;;2.75;1.25;;;;;21.05;48.58;100634.75;5033320;28;45328;-78
2023/12/21 15:15:56;;;;;;;;;1.25;1.25;;;;;20.74;48.36;100650.31;5034076;28;45903;-82
2023/12/21 15:18:22;;;;;;;;;0.75;0.75;;;;;20.60;48.79;100645.22;5033419;28;45850;-78
2023/12/21 15:20:48;;;;;;;;;2.25;1.00;;;;;21.04;48.53;100650.25;5032336;28;45802;-79
2023/12/21 15:23:13;;;;;;;;;5.75;0.75;;;;;20.91;48.27;100671.47;5034235;28;45352;-79
2023/12/21 15:25:38;;;;;;;;;1.75;1.00;;;;;20.54;49.53;100645.78;5034812;28;45922;-77
2023/12/21 15:28:04;;;;;;;;;3.00;2.00;;;;;20.76;49.80;100640.13;5034941;28;45269;-77
2023/12/21 15:30:29;;;;;;;;;2.25;1.00;;;;;20.69;50.06;100642.53;5034182;28;46157;-77
2023/12/21 15:32:55;;;;;;;;;1.00;1.00;;;;;20.95;49.43;100650.22;5014552;28;45321;-77
2023/12/21 15:35:20;;;;;;;;;1.25;0.75;;;;;20.98;49.16;100655.41;5015390;28;45418;-76
2023/12/21 15:37:45;;;;;;;;;1.00;1.00;;;;;20.84;49.71;100647.63;5015136;28;45394;-78
2023/12/21 15:40:11;;;;;;;;;1.75;1.75;;;;;21.00;48.97;100647.97;5015280;28;45597;-78
2023/12/21 15:42:36;;;;;;;;;4.00;1.00;;;;;21.06;49.02;100653.72;5015313;28;45308;-74
2023/12/21 15:45:01;;;;;;;;;4.00;1.00;;;;;21.01;48.84;100642.34;5010555;28;51948;-76
2023/12/21 15:47:28;;;;;;;;;4.50;1.75;;;;;20.89;48.95;100650.78;5019773;28;45513;-76
2023/12/21 15:49:54;;;;;;;;;1.00;1.00;;;;;20.87;48.46;100655.50;5021028;28;46081;-76
2023/12/21 15:52:19;;;;;;;;;1.25;1.25;;;;;20.95;48.25;100672.03;5022508;28;45424;-75
2023/12/21 15:54:44;;;;;;;;;4.75;1.00;;;;;20.81;47.76;100650.63;5023956;28;45206;-76
2023/12/21 15:57:10;;;;;;;;;1.25;1.25;;;;;20.89;47.75;100659.81;5022703;28;61222;-78
2023/12/21 15:59:35;;;;;;;;;1.75;1.75;;;;;20.88;47.10;100627.25;5024455;28;46289;-78
2023/12/21 16:02:02;;;;;;;;;2.75;1.00;;;;;20.98;47.07;100669.91;5022204;28;45255;-79
2023/12/21 16:04:28;;;;;;;;;3.00;1.75;;;;;21.06;46.97;100664.59;5027225;28;45329;-81
2023/12/21 16:06:54;;;;;;;;;1.00;1.00;;;;;20.94;46.97;100689.38;5025398;28;45314;-79
2023/12/21 16:09:19;;;;;;;;;1.00;1.00;;;;;20.75;47.38;100666.53;5031543;28;46207;-81
2023/12/21 16:11:45;;;;;;;;;2.00;0.50;;;;;20.80;47.61;100670.69;5033826;28;45208;-81
2023/12/21 16:14:10;;;;;;;;;2.00;1.00;;;;;20.91;47.69;100636.03;5031917;28;45384;-85
2023/12/21 16:16:35;;;;;;;;;1.25;0.00;;;;;20.63;48.43;100662.16;5033152;28;45348;-83
2023/12/21 16:19:01;;;;;;;;;3.50;2.50;;;;;20.84;48.81;100705.69;5035323;28;47183;-84
2023/12/21 16:21:26;;;;;;;;;5.25;3.00;;;;;20.28;49.08;100667.97;5025521;28;45468;-83
2023/12/21 16:23:55;;;;;;;;;1.75;0.25;;;;;20.60;48.79;100680.63;5009203;28;45239;-85
2023/12/21 16:26:20;;;;;;;;;2.00;2.00;;;;;20.55;48.47;100648.38;5025899;28;46173;-84
2023/12/21 16:28:46;;;;;;;;;3.00;3.00;;;;;20.54;47.62;100673.88;5022839;28;46296;-82
2023/12/21 16:31:11;;;;;;;;;1.75;1.75;;;;;20.68;48.05;100669.91;5010473;28;45486;-84
2023/12/21 16:33:37;;;;;;;;;2.00;2.00;;;;;20.60;47.29;100616.13;5035183;28;45514;-82
2023/12/21 16:36:03;;;;;;;;;2.25;2.00;;;;;21.03;46.85;100678.50;5021598;28;45428;-86
2023/12/21 16:38:33;;;;;;;;;4.00;2.00;;;;;20.60;46.87;100612.53;5020736;28;45463;-84
2023/12/21 16:40:59;;;;;;;;;3.50;1.25;;;;;20.89;47.06;100651.66;5021272;28;45156;-84
2023/12/21 16:43:25;;;;;;;;;1.50;1.50;;;;;20.99;46.86;100673.47;5019685;28;45490;-83
2023/12/21 16:45:51;;;;;;;;;4.75;2.00;;;;;20.97;47.22;100694.56;5024519;28;45320;-80
2023/12/21 16:48:17;;;;;;;;;2.25;2.25;;;;;20.94;46.97;100700.28;5022559;28;46217;-84
2023/12/21 16:50:49;;;;;;;;;4.75;2.25;;;;;20.97;47.41;100708.19;4999896;28;45487;-73